sensor_id;sensor_type;location;lat;lon;timestamp;pressure;altitude;pressure_sealevel;temperature;humidity
52957;BME280;38819;42.692;23.342;2023-03-01T00:02:20;95788.72;;;8.42;73.14
52957;BME280;38819;42.692;23.342;2023-03-01T00:04:45;95786.38;;;8.50;72.82
52957;BME280;38819;42.692;23.342;2023-03-01T00:07:12;95788.25;;;8.55;72.72
52957;BME280;38819;42.692;23.342;2023-03-01T00:09:38;95786.66;;;8.54;72.46
52957;BME280;38819;42.692;23.342;2023-03-01T00:12:06;95782.84;;;8.55;72.47
52957;BME280;38819;42.692;23.342;2023-03-01T00:14:31;95786.03;;;8.42;72.62
52957;BME280;38819;42.692;23.342;2023-03-01T00:16:57;95783.94;;;8.49;72.38
52957;BME280;38819;42.692;23.342;2023-03-01T00:19:22;95786.56;;;8.39;72.58
52957;BME280;38819;42.692;23.342;2023-03-01T00:21:48;95780.91;;;8.40;72.43
52957;BME280;38819;42.692;23.342;2023-03-01T00:24:14;95766.88;;;8.33;72.59
52957;BME280;38819;42.692;23.342;2023-03-01T00:26:39;95774.47;;;8.41;72.46
52957;BME280;38819;42.692;23.342;2023-03-01T00:29:05;95761.78;;;8.42;72.20
52957;BME280;38819;42.692;23.342;2023-03-01T00:31:32;95759.59;;;8.28;72.68
52957;BME280;38819;42.692;23.342;2023-03-01T00:34:03;95751.28;;;8.30;72.82
52957;BME280;38819;42.692;23.342;2023-03-01T00:36:32;95761.72;;;8.11;73.04
52957;BME280;38819;42.692;23.342;2023-03-01T00:38:58;95749.56;;;8.03;73.47
52957;BME280;38819;42.692;23.342;2023-03-01T00:41:24;95755.75;;;8.04;73.68
52957;BME280;38819;42.692;23.342;2023-03-01T00:43:51;95746.88;;;8.03;73.59
52957;BME280;38819;42.692;23.342;2023-03-01T00:46:22;95745.19;;;7.87;74.21
52957;BME280;38819;42.692;23.342;2023-03-01T00:48:47;95741.16;;;7.84;74.42
52957;BME280;38819;42.692;23.342;2023-03-01T00:51:18;95748.63;;;7.72;74.78
52957;BME280;38819;42.692;23.342;2023-03-01T00:53:44;95757.59;;;7.93;74.35
52957;BME280;38819;42.692;23.342;2023-03-01T00:56:11;95751.66;;;7.91;74.14
52957;BME280;38819;42.692;23.342;2023-03-01T00:58:37;95748.75;;;7.97;73.92
52957;BME280;38819;42.692;23.342;2023-03-01T01:01:22;95747.06;;;7.86;73.95
52957;BME280;38819;42.692;23.342;2023-03-01T01:03:49;95747.31;;;7.85;74.21
52957;BME280;38819;42.692;23.342;2023-03-01T01:06:22;95741.94;;;7.79;74.52
52957;BME280;38819;42.692;23.342;2023-03-01T01:08:49;95753.31;;;7.92;73.96
52957;BME280;38819;42.692;23.342;2023-03-01T01:11:15;95759.78;;;8.01;73.67
52957;BME280;38819;42.692;23.342;2023-03-01T01:13:43;95753.31;;;7.97;73.65
52957;BME280;38819;42.692;23.342;2023-03-01T01:16:08;95751.44;;;8.03;73.25
52957;BME280;38819;42.692;23.342;2023-03-01T01:18:34;95757.88;;;7.96;73.58
52957;BME280;38819;42.692;23.342;2023-03-01T01:21:08;95750.84;;;7.85;73.81
52957;BME280;38819;42.692;23.342;2023-03-01T01:23:34;95745.47;;;7.85;73.78
52957;BME280;38819;42.692;23.342;2023-03-01T01:26:15;95747.88;;;7.87;73.60
52957;BME280;38819;42.692;23.342;2023-03-01T01:28:41;95752.22;;;7.93;73.44
52957;BME280;38819;42.692;23.342;2023-03-01T01:31:07;95737.19;;;8.02;73.17
52957;BME280;38819;42.692;23.342;2023-03-01T01:33:32;95741.75;;;8.07;72.55
52957;BME280;38819;42.692;23.342;2023-03-01T01:35:58;95742.84;;;8.06;72.24
52957;BME280;38819;42.692;23.342;2023-03-01T01:38:24;95762.78;;;8.15;72.24
52957;BME280;38819;42.692;23.342;2023-03-01T01:40:50;95762.53;;;8.22;71.51
52957;BME280;38819;42.692;23.342;2023-03-01T01:43:20;95763.34;;;8.17;71.41
52957;BME280;38819;42.692;23.342;2023-03-01T01:45:46;95765.22;;;8.22;71.37
52957;BME280;38819;42.692;23.342;2023-03-01T01:48:16;95761.47;;;8.23;71.27
52957;BME280;38819;42.692;23.342;2023-03-01T01:50:42;95758.28;;;8.31;70.87
52957;BME280;38819;42.692;23.342;2023-03-01T01:53:13;95763.13;;;8.34;70.72
52957;BME280;38819;42.692;23.342;2023-03-01T01:55:44;95758.53;;;8.29;70.51
52957;BME280;38819;42.692;23.342;2023-03-01T01:58:12;95755.31;;;8.32;70.38
52957;BME280;38819;42.692;23.342;2023-03-01T02:00:39;95749.66;;;8.29;70.16
52957;BME280;38819;42.692;23.342;2023-03-01T02:03:09;95751.50;;;8.18;70.41
52957;BME280;38819;42.692;23.342;2023-03-01T02:05:50;95739.16;;;8.22;69.91
52957;BME280;38819;42.692;23.342;2023-03-01T02:08:19;95744.28;;;8.24;69.67
52957;BME280;38819;42.692;23.342;2023-03-01T02:10:47;95731.88;;;8.28;69.47
52957;BME280;38819;42.692;23.342;2023-03-01T02:13:13;95735.66;;;8.27;69.55
52957;BME280;38819;42.692;23.342;2023-03-01T02:15:40;95730.56;;;8.25;69.26
52957;BME280;38819;42.692;23.342;2023-03-01T02:18:07;95723.28;;;8.21;69.27
52957;BME280;38819;42.692;23.342;2023-03-01T02:20:48;95732.94;;;8.22;69.67
52957;BME280;38819;42.692;23.342;2023-03-01T02:23:17;95727.56;;;8.27;69.40
52957;BME280;38819;42.692;23.342;2023-03-01T02:25:51;95730.22;;;8.16;69.38
52957;BME280;38819;42.692;23.342;2023-03-01T02:28:31;95727.25;;;8.08;69.49
52957;BME280;38819;42.692;23.342;2023-03-01T02:30:56;95726.97;;;7.99;69.88
52957;BME280;38819;42.692;23.342;2023-03-01T02:33:41;95734.50;;;8.02;70.22
52957;BME280;38819;42.692;23.342;2023-03-01T02:36:15;95740.69;;;8.03;70.39
52957;BME280;38819;42.692;23.342;2023-03-01T02:38:42;95741.00;;;8.16;70.15
52957;BME280;38819;42.692;23.342;2023-03-01T02:41:08;95745.03;;;8.09;70.45
52957;BME280;38819;42.692;23.342;2023-03-01T02:43:36;95744.69;;;7.95;71.06
52957;BME280;38819;42.692;23.342;2023-03-01T02:46:06;95740.59;;;7.82;71.74
52957;BME280;38819;42.692;23.342;2023-03-01T02:49:01;95735.97;;;7.72;72.14
52957;BME280;38819;42.692;23.342;2023-03-01T02:54:25;95737.03;;;7.71;72.42
52957;BME280;38819;42.692;23.342;2023-03-01T02:56:54;95739.53;;;7.83;71.97
52957;BME280;38819;42.692;23.342;2023-03-01T02:59:25;95728.44;;;7.69;72.12
52957;BME280;38819;42.692;23.342;2023-03-01T03:01:52;95734.41;;;7.82;71.95
52957;BME280;38819;42.692;23.342;2023-03-01T03:04:18;95737.19;;;7.97;71.55
52957;BME280;38819;42.692;23.342;2023-03-01T03:06:47;95736.91;;;7.98;71.40
52957;BME280;38819;42.692;23.342;2023-03-01T03:09:13;95732.34;;;7.99;71.10
52957;BME280;38819;42.692;23.342;2023-03-01T03:11:40;95727.69;;;7.84;71.81
52957;BME280;38819;42.692;23.342;2023-03-01T03:14:10;95729.84;;;7.77;72.05
52957;BME280;38819;42.692;23.342;2023-03-01T03:16:40;95731.72;;;7.87;71.66
52957;BME280;38819;42.692;23.342;2023-03-01T03:19:06;95740.34;;;7.84;71.67
52957;BME280;38819;42.692;23.342;2023-03-01T03:21:32;95735.78;;;7.89;71.46
52957;BME280;38819;42.692;23.342;2023-03-01T03:23:58;95736.88;;;7.93;71.25
52957;BME280;38819;42.692;23.342;2023-03-01T03:26:24;95733.38;;;7.93;71.13
52957;BME280;38819;42.692;23.342;2023-03-01T03:28:49;95747.09;;;7.96;71.45
52957;BME280;38819;42.692;23.342;2023-03-01T03:31:15;95743.06;;;7.94;71.12
52957;BME280;38819;42.692;23.342;2023-03-01T03:33:40;95740.94;;;8.01;70.85
52957;BME280;38819;42.692;23.342;2023-03-01T03:36:06;95748.50;;;8.09;70.87
52957;BME280;38819;42.692;23.342;2023-03-01T03:38:32;95740.16;;;8.01;71.10
52957;BME280;38819;42.692;23.342;2023-03-01T03:41:03;95746.59;;;8.05;71.08
52957;BME280;38819;42.692;23.342;2023-03-01T03:43:32;95753.59;;;8.01;71.06
52957;BME280;38819;42.692;23.342;2023-03-01T03:45:58;95754.41;;;8.06;71.00
52957;BME280;38819;42.692;23.342;2023-03-01T03:48:24;95755.75;;;7.98;71.07
52957;BME280;38819;42.692;23.342;2023-03-01T03:50:51;95759.72;;;7.86;71.47
52957;BME280;38819;42.692;23.342;2023-03-01T03:53:17;95763.50;;;7.90;71.79
52957;BME280;38819;42.692;23.342;2023-03-01T03:55:43;95756.19;;;7.80;71.89
52957;BME280;38819;42.692;23.342;2023-03-01T03:58:10;95757.28;;;7.84;71.96
52957;BME280;38819;42.692;23.342;2023-03-01T04:00:36;95760.28;;;7.93;71.65
52957;BME280;38819;42.692;23.342;2023-03-01T04:03:02;95757.06;;;7.91;71.55
52957;BME280;38819;42.692;23.342;2023-03-01T04:05:29;95767.81;;;7.96;71.38
52957;BME280;38819;42.692;23.342;2023-03-01T04:07:55;95764.56;;;7.89;71.69
52957;BME280;38819;42.692;23.342;2023-03-01T04:10:36;95767.00;;;7.90;71.35
52957;BME280;38819;42.692;23.342;2023-03-01T04:13:03;95766.19;;;7.95;71.45
52957;BME280;38819;42.692;23.342;2023-03-01T04:15:30;95766.47;;;7.93;71.34
52957;BME280;38819;42.692;23.342;2023-03-01T04:17:56;95767.44;;;7.72;71.48
52957;BME280;38819;42.692;23.342;2023-03-01T04:20:26;95767.34;;;7.56;72.45
52957;BME280;38819;42.692;23.342;2023-03-01T04:28:04;95761.06;;;7.40;73.13
52957;BME280;38819;42.692;23.342;2023-03-01T04:30:30;95758.94;;;7.42;73.15
52957;BME280;38819;42.692;23.342;2023-03-01T04:33:02;95775.66;;;7.55;73.08
52957;BME280;38819;42.692;23.342;2023-03-01T04:35:27;95763.34;;;7.59;73.00
52957;BME280;38819;42.692;23.342;2023-03-01T04:37:53;95760.72;;;7.74;72.54
52957;BME280;38819;42.692;23.342;2023-03-01T04:40:18;95761.03;;;7.83;71.89
52957;BME280;38819;42.692;23.342;2023-03-01T04:42:43;95759.47;;;7.87;71.79
52957;BME280;38819;42.692;23.342;2023-03-01T04:45:09;95758.13;;;7.95;71.50
52957;BME280;38819;42.692;23.342;2023-03-01T04:47:45;95758.44;;;7.98;71.29
52957;BME280;38819;42.692;23.342;2023-03-01T04:50:16;95758.47;;;8.04;71.05
52957;BME280;38819;42.692;23.342;2023-03-01T04:52:43;95755.50;;;8.05;70.99
52957;BME280;38819;42.692;23.342;2023-03-01T04:55:09;95754.44;;;8.11;70.85
52957;BME280;38819;42.692;23.342;2023-03-01T04:57:34;95751.50;;;8.18;70.42
52957;BME280;38819;42.692;23.342;2023-03-01T05:00:00;95749.59;;;8.13;70.64
52957;BME280;38819;42.692;23.342;2023-03-01T05:02:26;95756.59;;;8.09;70.58
52957;BME280;38819;42.692;23.342;2023-03-01T05:04:51;95752.28;;;8.13;70.70
52957;BME280;38819;42.692;23.342;2023-03-01T05:07:17;95752.84;;;8.10;70.75
52957;BME280;38819;42.692;23.342;2023-03-01T05:09:47;95757.09;;;8.01;70.97
52957;BME280;38819;42.692;23.342;2023-03-01T05:12:13;95753.84;;;7.94;71.26
52957;BME280;38819;42.692;23.342;2023-03-01T05:14:40;95760.56;;;8.02;71.07
52957;BME280;38819;42.692;23.342;2023-03-01T05:17:06;95757.91;;;8.07;70.89
52957;BME280;38819;42.692;23.342;2023-03-01T05:19:31;95764.34;;;7.95;71.42
52957;BME280;38819;42.692;23.342;2023-03-01T05:21:58;95758.69;;;7.92;71.32
52957;BME280;38819;42.692;23.342;2023-03-01T05:24:27;95761.66;;;7.95;71.37
52957;BME280;38819;42.692;23.342;2023-03-01T05:26:53;95762.38;;;7.81;71.82
52957;BME280;38819;42.692;23.342;2023-03-01T05:29:19;95756.22;;;7.85;71.96
52957;BME280;38819;42.692;23.342;2023-03-01T05:31:53;95760.22;;;7.83;71.73
52957;BME280;38819;42.692;23.342;2023-03-01T05:34:23;95768.31;;;7.83;71.66
52957;BME280;38819;42.692;23.342;2023-03-01T05:36:51;95764.75;;;7.72;72.28
52957;BME280;38819;42.692;23.342;2023-03-01T05:39:19;95762.59;;;7.69;72.42
52957;BME280;38819;42.692;23.342;2023-03-01T05:41:46;95759.91;;;7.69;72.15
52957;BME280;38819;42.692;23.342;2023-03-01T05:44:11;95766.22;;;7.47;72.90
52957;BME280;38819;42.692;23.342;2023-03-01T05:46:37;95774.56;;;7.51;73.01
52957;BME280;38819;42.692;23.342;2023-03-01T05:49:02;95762.44;;;7.48;73.08
52957;BME280;38819;42.692;23.342;2023-03-01T05:51:30;95772.91;;;7.45;73.04
52957;BME280;38819;42.692;23.342;2023-03-01T05:53:58;95780.75;;;7.51;73.06
52957;BME280;38819;42.692;23.342;2023-03-01T05:56:24;95782.94;;;7.59;72.84
52957;BME280;38819;42.692;23.342;2023-03-01T05:58:49;95781.13;;;7.65;72.77
52957;BME280;38819;42.692;23.342;2023-03-01T06:01:15;95784.94;;;7.74;72.27
52957;BME280;38819;42.692;23.342;2023-03-01T06:03:40;95795.13;;;7.72;72.28
52957;BME280;38819;42.692;23.342;2023-03-01T06:06:06;95788.16;;;7.76;71.97
52957;BME280;38819;42.692;23.342;2023-03-01T06:08:31;95792.44;;;7.72;72.16
52957;BME280;38819;42.692;23.342;2023-03-01T06:10:57;95799.16;;;7.70;72.01
52957;BME280;38819;42.692;23.342;2023-03-01T06:13:23;95802.41;;;7.72;72.03
52957;BME280;38819;42.692;23.342;2023-03-01T06:15:48;95798.03;;;7.60;72.19
52957;BME280;38819;42.692;23.342;2023-03-01T06:18:14;95811.22;;;7.62;72.34
52957;BME280;38819;42.692;23.342;2023-03-01T06:20:39;95811.88;;;7.42;73.32
52957;BME280;38819;42.692;23.342;2023-03-01T06:23:05;95806.97;;;7.34;73.54
52957;BME280;38819;42.692;23.342;2023-03-01T06:25:31;95813.47;;;7.43;73.40
52957;BME280;38819;42.692;23.342;2023-03-01T06:27:57;95810.22;;;7.36;73.89
52957;BME280;38819;42.692;23.342;2023-03-01T06:30:24;95800.91;;;7.49;73.69
52957;BME280;38819;42.692;23.342;2023-03-01T06:32:51;95805.25;;;7.60;73.10
52957;BME280;38819;42.692;23.342;2023-03-01T06:35:18;95803.47;;;7.71;72.61
52957;BME280;38819;42.692;23.342;2023-03-01T06:37:44;95805.34;;;7.70;72.11
52957;BME280;38819;42.692;23.342;2023-03-01T06:40:10;95807.84;;;7.82;72.04
52957;BME280;38819;42.692;23.342;2023-03-01T06:42:38;95817.53;;;7.88;71.66
52957;BME280;38819;42.692;23.342;2023-03-01T06:45:05;95812.97;;;7.84;71.58
52957;BME280;38819;42.692;23.342;2023-03-01T06:47:31;95809.84;;;7.59;71.70
52957;BME280;38819;42.692;23.342;2023-03-01T06:49:58;95801.84;;;7.70;71.94
52957;BME280;38819;42.692;23.342;2023-03-01T06:52:24;95805.03;;;7.67;72.11
52957;BME280;38819;42.692;23.342;2023-03-01T06:54:49;95811.81;;;7.74;71.76
52957;BME280;38819;42.692;23.342;2023-03-01T06:57:15;95803.03;;;7.89;71.40
52957;BME280;38819;42.692;23.342;2023-03-01T06:59:40;95802.50;;;7.87;71.23
52957;BME280;38819;42.692;23.342;2023-03-01T07:02:06;95797.66;;;7.89;71.19
52957;BME280;38819;42.692;23.342;2023-03-01T07:04:31;95812.09;;;7.78;71.64
52957;BME280;38819;42.692;23.342;2023-03-01T07:06:56;95816.75;;;7.88;71.28
52957;BME280;38819;42.692;23.342;2023-03-01T07:09:22;95812.72;;;7.90;71.33
52957;BME280;38819;42.692;23.342;2023-03-01T07:11:48;95806.44;;;7.74;72.25
52957;BME280;38819;42.692;23.342;2023-03-01T07:14:14;95808.84;;;7.71;71.79
52957;BME280;38819;42.692;23.342;2023-03-01T07:16:39;95804.34;;;7.87;71.77
52957;BME280;38819;42.692;23.342;2023-03-01T07:19:05;95797.59;;;7.79;71.40
52957;BME280;38819;42.692;23.342;2023-03-01T07:21:31;95806.97;;;7.76;71.95
52957;BME280;38819;42.692;23.342;2023-03-01T07:23:56;95813.22;;;7.82;72.08
52957;BME280;38819;42.692;23.342;2023-03-01T07:26:22;95802.66;;;7.70;71.96
52957;BME280;38819;42.692;23.342;2023-03-01T07:28:47;95795.19;;;7.83;71.96
52957;BME280;38819;42.692;23.342;2023-03-01T07:31:13;95792.28;;;7.89;71.81
52957;BME280;38819;42.692;23.342;2023-03-01T07:33:39;95795.28;;;8.03;71.56
52957;BME280;38819;42.692;23.342;2023-03-01T07:36:05;95793.97;;;8.06;71.31
52957;BME280;38819;42.692;23.342;2023-03-01T07:38:31;95783.75;;;8.08;71.02
52957;BME280;38819;42.692;23.342;2023-03-01T07:41:02;95795.38;;;8.19;70.75
52957;BME280;38819;42.692;23.342;2023-03-01T07:43:29;95796.19;;;8.24;70.38
52957;BME280;38819;42.692;23.342;2023-03-01T07:45:54;95790.81;;;8.24;69.95
52957;BME280;38819;42.692;23.342;2023-03-01T07:48:22;95793.81;;;8.38;69.74
52957;BME280;38819;42.692;23.342;2023-03-01T07:50:48;95788.16;;;8.34;69.25
52957;BME280;38819;42.692;23.342;2023-03-01T07:53:13;95780.34;;;8.33;69.58
52957;BME280;38819;42.692;23.342;2023-03-01T07:55:39;95783.09;;;8.43;68.98
52957;BME280;38819;42.692;23.342;2023-03-01T07:58:04;95777.75;;;8.53;68.51
52957;BME280;38819;42.692;23.342;2023-03-01T08:00:31;95776.41;;;8.56;67.69
52957;BME280;38819;42.692;23.342;2023-03-01T08:02:59;95765.91;;;8.55;68.36
52957;BME280;38819;42.692;23.342;2023-03-01T08:05:25;95778.56;;;8.49;68.31
52957;BME280;38819;42.692;23.342;2023-03-01T08:07:50;95778.84;;;8.52;68.00
52957;BME280;38819;42.692;23.342;2023-03-01T08:10:16;95778.00;;;8.47;68.24
52957;BME280;38819;42.692;23.342;2023-03-01T08:12:41;95763.16;;;8.39;68.32
52957;BME280;38819;42.692;23.342;2023-03-01T08:15:07;95770.69;;;8.37;68.48
52957;BME280;38819;42.692;23.342;2023-03-01T08:17:33;95768.28;;;8.41;68.46
52957;BME280;38819;42.692;23.342;2023-03-01T08:19:59;95770.50;;;8.59;68.19
52957;BME280;38819;42.692;23.342;2023-03-01T08:22:24;95778.31;;;8.61;67.92
52957;BME280;38819;42.692;23.342;2023-03-01T08:24:50;95755.13;;;8.55;67.58
52957;BME280;38819;42.692;23.342;2023-03-01T08:27:16;95777.53;;;8.65;67.46
52957;BME280;38819;42.692;23.342;2023-03-01T08:29:42;95773.47;;;8.73;67.39
52957;BME280;38819;42.692;23.342;2023-03-01T08:32:07;95770.53;;;8.85;67.25
52957;BME280;38819;42.692;23.342;2023-03-01T08:34:33;95773.22;;;8.90;67.25
52957;BME280;38819;42.692;23.342;2023-03-01T08:37:01;95770.28;;;9.02;66.79
52957;BME280;38819;42.692;23.342;2023-03-01T08:39:26;95769.47;;;8.91;66.59
52957;BME280;38819;42.692;23.342;2023-03-01T08:41:52;95759.47;;;8.71;67.21
52957;BME280;38819;42.692;23.342;2023-03-01T08:44:18;95763.50;;;8.74;67.35
52957;BME280;38819;42.692;23.342;2023-03-01T08:46:44;95763.81;;;8.72;67.52
52957;BME280;38819;42.692;23.342;2023-03-01T08:49:15;95768.09;;;8.78;67.54
52957;BME280;38819;42.692;23.342;2023-03-01T08:51:41;95766.25;;;8.79;66.73
52957;BME280;38819;42.692;23.342;2023-03-01T08:54:12;95773.22;;;8.75;66.64
52957;BME280;38819;42.692;23.342;2023-03-01T08:56:38;95768.94;;;8.79;66.32
52957;BME280;38819;42.692;23.342;2023-03-01T08:59:04;95765.41;;;8.73;66.14
52957;BME280;38819;42.692;23.342;2023-03-01T09:01:29;95777.56;;;8.86;66.03
52957;BME280;38819;42.692;23.342;2023-03-01T09:03:55;95777.03;;;9.04;65.76
52957;BME280;38819;42.692;23.342;2023-03-01T09:06:20;95764.34;;;8.95;64.85
52957;BME280;38819;42.692;23.342;2023-03-01T09:08:47;95767.03;;;9.15;64.92
52957;BME280;38819;42.692;23.342;2023-03-01T09:11:19;95758.72;;;9.32;63.88
52957;BME280;38819;42.692;23.342;2023-03-01T09:13:47;95763.81;;;9.44;63.75
52957;BME280;38819;42.692;23.342;2023-03-01T09:16:14;95764.88;;;9.43;63.76
52957;BME280;38819;42.692;23.342;2023-03-01T09:18:40;95765.69;;;9.28;63.76
52957;BME280;38819;42.692;23.342;2023-03-01T09:21:11;95773.00;;;9.27;64.04
52957;BME280;38819;42.692;23.342;2023-03-01T09:23:40;95762.22;;;9.33;63.84
52957;BME280;38819;42.692;23.342;2023-03-01T09:26:11;95767.56;;;9.07;64.59
52957;BME280;38819;42.692;23.342;2023-03-01T09:28:37;95763.03;;;9.07;64.96
52957;BME280;38819;42.692;23.342;2023-03-01T09:31:03;95761.69;;;9.25;64.83
52957;BME280;38819;42.692;23.342;2023-03-01T09:33:30;95754.66;;;9.09;64.49
52957;BME280;38819;42.692;23.342;2023-03-01T09:36:05;95767.84;;;9.00;65.36
52957;BME280;38819;42.692;23.342;2023-03-01T09:38:31;95764.63;;;8.98;65.37
52957;BME280;38819;42.692;23.342;2023-03-01T09:40:57;95767.56;;;8.86;65.53
52957;BME280;38819;42.692;23.342;2023-03-01T09:46:12;95748.72;;;8.81;66.23
52957;BME280;38819;42.692;23.342;2023-03-01T09:48:44;95754.94;;;8.97;66.33
52957;BME280;38819;42.692;23.342;2023-03-01T09:51:18;95744.69;;;8.94;65.70
52957;BME280;38819;42.692;23.342;2023-03-01T09:53:45;95746.84;;;8.92;65.75
52957;BME280;38819;42.692;23.342;2023-03-01T09:56:19;95745.75;;;9.03;64.87
52957;BME280;38819;42.692;23.342;2023-03-01T09:58:59;95746.84;;;8.92;64.91
52957;BME280;38819;42.692;23.342;2023-03-01T10:01:34;95741.72;;;8.96;65.21
52957;BME280;38819;42.692;23.342;2023-03-01T10:06:29;95733.09;;;9.24;64.18
52957;BME280;38819;42.692;23.342;2023-03-01T10:09:00;95733.59;;;9.37;63.48
52957;BME280;38819;42.692;23.342;2023-03-01T10:11:35;95718.53;;;9.41;63.27
52957;BME280;38819;42.692;23.342;2023-03-01T10:14:27;95731.47;;;9.39;63.67
52957;BME280;38819;42.692;23.342;2023-03-01T10:17:03;95741.97;;;9.30;64.03
52957;BME280;38819;42.692;23.342;2023-03-01T10:19:33;95737.97;;;9.22;64.34
52957;BME280;38819;42.692;23.342;2023-03-01T10:22:22;95729.03;;;9.27;64.53
52957;BME280;38819;42.692;23.342;2023-03-01T10:24:51;95719.09;;;9.17;63.95
52957;BME280;38819;42.692;23.342;2023-03-01T10:27:26;95723.66;;;9.32;64.17
52957;BME280;38819;42.692;23.342;2023-03-01T10:30:16;95710.94;;;9.48;63.57
52957;BME280;38819;42.692;23.342;2023-03-01T10:32:43;95696.66;;;9.53;63.31
52957;BME280;38819;42.692;23.342;2023-03-01T10:38:09;95706.63;;;9.57;62.54
52957;BME280;38819;42.692;23.342;2023-03-01T10:40:36;95706.09;;;9.45;63.09
52957;BME280;38819;42.692;23.342;2023-03-01T10:43:14;95702.91;;;9.33;63.02
52957;BME280;38819;42.692;23.342;2023-03-01T10:45:40;95684.81;;;9.38;63.18
52957;BME280;38819;42.692;23.342;2023-03-01T10:50:41;95691.81;;;9.50;63.27
52957;BME280;38819;42.692;23.342;2023-03-01T10:53:42;95699.59;;;9.61;62.39
52957;BME280;38819;42.692;23.342;2023-03-01T10:56:13;95690.69;;;9.61;61.54
52957;BME280;38819;42.692;23.342;2023-03-01T10:59:17;95699.91;;;9.39;62.16
52957;BME280;38819;42.692;23.342;2023-03-01T11:01:34;95699.13;;;9.39;62.36
52957;BME280;38819;42.692;23.342;2023-03-01T11:06:36;95688.00;;;9.61;62.55
52957;BME280;38819;42.692;23.342;2023-03-01T11:09:21;95697.16;;;9.60;63.11
52957;BME280;38819;42.692;23.342;2023-03-01T11:11:52;95703.38;;;9.55;62.33
52957;BME280;38819;42.692;23.342;2023-03-01T11:14:22;95692.63;;;9.45;62.89
52957;BME280;38819;42.692;23.342;2023-03-01T11:16:58;95704.50;;;9.34;62.99
52957;BME280;38819;42.692;23.342;2023-03-01T11:19:25;95695.34;;;9.24;63.59
52957;BME280;38819;42.692;23.342;2023-03-01T11:22:13;95701.00;;;9.28;63.73
52957;BME280;38819;42.692;23.342;2023-03-01T11:24:54;95694.00;;;9.32;64.08
52957;BME280;38819;42.692;23.342;2023-03-01T11:27:26;95691.56;;;9.36;64.03
52957;BME280;38819;42.692;23.342;2023-03-01T11:30:03;95679.13;;;9.45;63.93
52957;BME280;38819;42.692;23.342;2023-03-01T11:32:49;95690.47;;;9.42;63.16
52957;BME280;38819;42.692;23.342;2023-03-01T11:35:19;95693.72;;;9.28;63.61
52957;BME280;38819;42.692;23.342;2023-03-01T11:38:19;95691.31;;;9.22;64.55
52957;BME280;38819;42.692;23.342;2023-03-01T11:43:52;95668.91;;;9.32;64.72
52957;BME280;38819;42.692;23.342;2023-03-01T11:57:20;95649.84;;;9.13;64.78
52957;BME280;38819;42.692;23.342;2023-03-01T12:08:16;95647.59;;;9.40;64.54
52957;BME280;38819;42.692;23.342;2023-03-01T12:13:23;95650.03;;;9.52;63.95
52957;BME280;38819;42.692;23.342;2023-03-01T12:16:10;95642.44;;;9.54;64.01
52957;BME280;38819;42.692;23.342;2023-03-01T12:40:12;95626.22;;;10.19;62.46
52957;BME280;38819;42.692;23.342;2023-03-01T12:51:05;95620.09;;;10.04;62.54
52957;BME280;38819;42.692;23.342;2023-03-01T12:53:36;95615.25;;;10.00;62.14
52957;BME280;38819;42.692;23.342;2023-03-01T12:56:11;95615.34;;;9.85;62.81
52957;BME280;38819;42.692;23.342;2023-03-01T12:59:36;95614.88;;;9.73;63.35
52957;BME280;38819;42.692;23.342;2023-03-01T13:02:03;95616.81;;;9.57;63.96
52957;BME280;38819;42.692;23.342;2023-03-01T13:07:28;95616.88;;;9.36;64.54
52957;BME280;38819;42.692;23.342;2023-03-01T13:17:56;95626.34;;;9.23;65.63
52957;BME280;38819;42.692;23.342;2023-03-01T13:20:46;95621.22;;;9.37;65.68
52957;BME280;38819;42.692;23.342;2023-03-01T13:30:57;95618.38;;;9.68;65.07
52957;BME280;38819;42.692;23.342;2023-03-01T13:35:48;95624.81;;;9.82;64.30
52957;BME280;38819;42.692;23.342;2023-03-01T13:41:02;95621.00;;;9.83;64.05
52957;BME280;38819;42.692;23.342;2023-03-01T13:43:38;95622.22;;;9.52;65.24
52957;BME280;38819;42.692;23.342;2023-03-01T13:46:31;95629.44;;;9.67;65.35
52957;BME280;38819;42.692;23.342;2023-03-01T13:48:58;95618.56;;;9.87;64.93
52957;BME280;38819;42.692;23.342;2023-03-01T13:51:26;95621.84;;;9.79;64.57
52957;BME280;38819;42.692;23.342;2023-03-01T13:53:53;95613.25;;;9.72;65.36
52957;BME280;38819;42.692;23.342;2023-03-01T13:56:36;95611.28;;;9.88;65.00
52957;BME280;38819;42.692;23.342;2023-03-01T13:59:19;95608.94;;;9.71;65.27
52957;BME280;38819;42.692;23.342;2023-03-01T14:01:53;95610.09;;;9.54;65.99
52957;BME280;38819;42.692;23.342;2023-03-01T14:04:23;95614.22;;;9.31;66.71
52957;BME280;38819;42.692;23.342;2023-03-01T14:06:48;95609.88;;;9.35;66.74
52957;BME280;38819;42.692;23.342;2023-03-01T14:09:23;95609.56;;;9.47;66.76
52957;BME280;38819;42.692;23.342;2023-03-01T14:17:52;95618.22;;;9.44;66.86
52957;BME280;38819;42.692;23.342;2023-03-01T14:20:26;95607.41;;;9.54;66.49
52957;BME280;38819;42.692;23.342;2023-03-01T14:22:55;95602.00;;;9.54;66.40
52957;BME280;38819;42.692;23.342;2023-03-01T14:25:33;95602.31;;;9.48;66.52
52957;BME280;38819;42.692;23.342;2023-03-01T14:28:35;95614.19;;;9.36;66.86
52957;BME280;38819;42.692;23.342;2023-03-01T14:31:44;95617.38;;;9.49;66.78
52957;BME280;38819;42.692;23.342;2023-03-01T14:34:23;95612.75;;;9.64;66.28
52957;BME280;38819;42.692;23.342;2023-03-01T14:36:49;95610.78;;;9.75;65.86
52957;BME280;38819;42.692;23.342;2023-03-01T14:39:20;95602.94;;;9.84;65.73
52957;BME280;38819;42.692;23.342;2023-03-01T14:41:49;95605.38;;;9.86;65.42
52957;BME280;38819;42.692;23.342;2023-03-01T14:44:19;95613.75;;;9.84;65.75
52957;BME280;38819;42.692;23.342;2023-03-01T14:46:52;95605.44;;;9.65;66.01
52957;BME280;38819;42.692;23.342;2023-03-01T14:49:30;95610.81;;;9.70;66.03
52957;BME280;38819;42.692;23.342;2023-03-01T14:52:06;95605.09;;;9.82;65.81
52957;BME280;38819;42.692;23.342;2023-03-01T14:54:40;95598.31;;;9.90;65.22
52957;BME280;38819;42.692;23.342;2023-03-01T14:57:14;95597.75;;;9.93;64.87
52957;BME280;38819;42.692;23.342;2023-03-01T14:59:42;95596.41;;;9.90;64.78